KLM875 EHAM-VOMM
Flight info
| Callsign | KLM875 |
|---|---|
| Flight time | N/A |
| Altitude | 35000 |
| Route | ARNEM L620 PIKIB T620 LALUK DCT ETUDA/N0465F370 DCT RUTKI DCT KUSIS DCT TOMET DCT GLT DCT TUREL/K0867F370 DCT ABRAN M860 KUGOS/N0466F370 UL851 KARDE UN644 ROLIN N644 LAGAS M747 SULEL/N0466F390 N449 DUKAN B449 RANAH L750 ZB G202 RK P628 VIKIT Z8 ABVUL Z9 ATLUN W58 UUD L518 IID/N0479F410 L518 HIA V4 BOPRI BOPRI2F |
| Aircraft | B772/H-SDE2E3FGHIJ5LORVWXY/LB1D1 |
Departure
| Time | N/A |
|---|---|
| Airport | Amsterdam Airport Schiphol (EHAM) |
Arrival
| Time | 2026-04-24 11:34 |
|---|---|
| Airport | Chennai International Airport (VOMM) |
| Time | Latitude | Longitude | Altitude | Speed | Heading |
|---|---|---|---|---|---|
| 2026-04-24 11:04 | 14.87408 | 80.24464 | 39330 ft | 385 kts | 181° |
| 2026-04-24 11:04 | 14.84752 | 80.24669 | 38993 ft | 381 kts | 181° |
| 2026-04-24 11:04 | 14.82114 | 80.24872 | 38654 ft | 377 kts | 182° |
| 2026-04-24 11:05 | 14.79509 | 80.25072 | 38281 ft | 374 kts | 182° |
| 2026-04-24 11:05 | 14.76929 | 80.25270 | 37869 ft | 370 kts | 182° |
| 2026-04-24 11:05 | 14.74371 | 80.25466 | 37448 ft | 367 kts | 182° |
| 2026-04-24 11:05 | 14.71828 | 80.25661 | 37038 ft | 364 kts | 182° |
| 2026-04-24 11:06 | 14.69341 | 80.25853 | 36671 ft | 361 kts | 182° |
| 2026-04-24 11:06 | 14.66850 | 80.26044 | 36282 ft | 358 kts | 182° |
| 2026-04-24 11:06 | 14.64377 | 80.26234 | 35887 ft | 355 kts | 182° |
| 2026-04-24 11:06 | 14.61916 | 80.26422 | 35497 ft | 353 kts | 182° |
| 2026-04-24 11:07 | 14.57040 | 80.26796 | 34751 ft | 349 kts | 182° |
| 2026-04-24 11:07 | 14.54629 | 80.26981 | 34378 ft | 347 kts | 182° |
| 2026-04-24 11:07 | 14.52223 | 80.27166 | 34026 ft | 344 kts | 182° |
| 2026-04-24 11:08 | 14.49845 | 80.27348 | 33648 ft | 340 kts | 182° |
| 2026-04-24 11:08 | 14.47513 | 80.27531 | 32965 ft | 333 kts | 182° |
| 2026-04-24 11:08 | 14.45206 | 80.27710 | 32072 ft | 333 kts | 182° |
| 2026-04-24 11:08 | 14.42887 | 80.27887 | 31169 ft | 335 kts | 181° |
| 2026-04-24 11:09 | 14.40565 | 80.28064 | 30372 ft | 334 kts | 181° |
| 2026-04-24 11:09 | 14.38256 | 80.28240 | 29606 ft | 333 kts | 180° |
| 2026-04-24 11:09 | 14.35949 | 80.28416 | 28934 ft | 331 kts | 180° |
| 2026-04-24 11:09 | 14.33670 | 80.28592 | 28416 ft | 326 kts | 180° |
| 2026-04-24 11:10 | 14.31423 | 80.28765 | 27891 ft | 322 kts | 180° |
| 2026-04-24 11:10 | 14.29194 | 80.28936 | 27319 ft | 320 kts | 179° |
| 2026-04-24 11:10 | 14.26978 | 80.29105 | 26731 ft | 319 kts | 179° |
| 2026-04-24 11:10 | 14.24771 | 80.29273 | 26173 ft | 317 kts | 179° |
| 2026-04-24 11:11 | 14.22575 | 80.29441 | 25643 ft | 316 kts | 179° |
| 2026-04-24 11:11 | 14.20384 | 80.29608 | 25122 ft | 317 kts | 178° |
| 2026-04-24 11:11 | 14.18170 | 80.29776 | 24887 ft | 319 kts | 178° |
| 2026-04-24 11:11 | 14.15971 | 80.29944 | 24787 ft | 314 kts | 178° |
| 2026-04-24 11:12 | 14.13803 | 80.30110 | 24674 ft | 311 kts | 178° |
| 2026-04-24 11:12 | 14.11645 | 80.30274 | 24489 ft | 311 kts | 178° |
| 2026-04-24 11:12 | 14.09508 | 80.30436 | 24273 ft | 312 kts | 178° |
| 2026-04-24 11:12 | 14.07343 | 80.30601 | 24075 ft | 312 kts | 178° |
| 2026-04-24 11:13 | 14.05191 | 80.30765 | 23942 ft | 309 kts | 177° |
| 2026-04-24 11:13 | 14.03048 | 80.30929 | 23761 ft | 309 kts | 177° |
| 2026-04-24 11:13 | 14.00915 | 80.31092 | 23624 ft | 306 kts | 177° |
| 2026-04-24 11:13 | 13.98796 | 80.31254 | 23468 ft | 305 kts | 177° |
| 2026-04-24 11:14 | 13.96687 | 80.31415 | 23284 ft | 304 kts | 177° |
| 2026-04-24 11:14 | 13.94579 | 80.31576 | 23096 ft | 303 kts | 176° |
| 2026-04-24 11:14 | 13.92472 | 80.31736 | 22811 ft | 306 kts | 176° |
| 2026-04-24 11:14 | 13.90341 | 80.31899 | 22555 ft | 307 kts | 176° |
| 2026-04-24 11:15 | 13.88197 | 80.32063 | 22252 ft | 309 kts | 176° |
| 2026-04-24 11:15 | 13.86061 | 80.32225 | 22079 ft | 307 kts | 176° |
| 2026-04-24 11:15 | 13.83944 | 80.32388 | 21664 ft | 308 kts | 176° |
| 2026-04-24 11:15 | 13.81750 | 80.32554 | 21033 ft | 322 kts | 176° |
| 2026-04-24 11:16 | 13.79486 | 80.32727 | 20619 ft | 329 kts | 175° |
| 2026-04-24 11:16 | 13.77187 | 80.32903 | 20272 ft | 333 kts | 175° |
| 2026-04-24 11:16 | 13.74861 | 80.33080 | 19927 ft | 337 kts | 175° |
| 2026-04-24 11:16 | 13.72510 | 80.33259 | 19655 ft | 338 kts | 175° |
| 2026-04-24 11:17 | 13.70168 | 80.33437 | 19432 ft | 338 kts | 175° |
| 2026-04-24 11:17 | 13.67850 | 80.33614 | 19257 ft | 336 kts | 175° |
| 2026-04-24 11:17 | 13.65519 | 80.33790 | 19024 ft | 336 kts | 174° |
| 2026-04-24 11:17 | 13.63193 | 80.33765 | 18655 ft | 333 kts | 188° |
| 2026-04-24 11:18 | 13.60956 | 80.33260 | 18179 ft | 328 kts | 191° |
| 2026-04-24 11:18 | 13.58731 | 80.32683 | 17444 ft | 330 kts | 191° |
| 2026-04-24 11:18 | 13.56498 | 80.32103 | 16717 ft | 332 kts | 191° |
| 2026-04-24 11:18 | 13.55010 | 80.31723 | 16273 ft | 333 kts | 192° |
| 2026-04-24 11:19 | 13.52738 | 80.31151 | 15825 ft | 337 kts | 191° |
| 2026-04-24 11:19 | 13.50464 | 80.30588 | 15435 ft | 336 kts | 192° |
| 2026-04-24 11:19 | 13.48201 | 80.30031 | 15046 ft | 334 kts | 191° |
| 2026-04-24 11:19 | 13.45943 | 80.29481 | 14672 ft | 333 kts | 192° |
| 2026-04-24 11:20 | 13.42927 | 80.28749 | 14159 ft | 332 kts | 191° |
| 2026-04-24 11:20 | 13.41440 | 80.28390 | 13924 ft | 331 kts | 191° |
| 2026-04-24 11:20 | 13.39196 | 80.27849 | 13538 ft | 331 kts | 191° |
| 2026-04-24 11:20 | 13.36960 | 80.27310 | 13136 ft | 329 kts | 191° |
| 2026-04-24 11:21 | 13.34737 | 80.26774 | 12761 ft | 327 kts | 191° |
| 2026-04-24 11:21 | 13.32526 | 80.26241 | 12387 ft | 325 kts | 191° |
| 2026-04-24 11:21 | 13.30329 | 80.25711 | 12036 ft | 323 kts | 191° |
| 2026-04-24 11:21 | 13.28146 | 80.25186 | 11685 ft | 321 kts | 191° |
| 2026-04-24 11:22 | 13.25976 | 80.24664 | 11340 ft | 320 kts | 191° |
| 2026-04-24 11:22 | 13.23816 | 80.24143 | 10988 ft | 318 kts | 191° |
| 2026-04-24 11:22 | 13.21665 | 80.23626 | 10641 ft | 317 kts | 190° |
| 2026-04-24 11:22 | 13.19526 | 80.23111 | 10314 ft | 315 kts | 191° |
| 2026-04-24 11:23 | 13.17395 | 80.22598 | 10001 ft | 313 kts | 190° |
| 2026-04-24 11:23 | 13.15305 | 80.22095 | 9761 ft | 305 kts | 190° |
| 2026-04-24 11:23 | 13.13254 | 80.21586 | 9402 ft | 301 kts | 194° |
| 2026-04-24 11:23 | 13.11440 | 80.20553 | 9057 ft | 300 kts | 224° |
| 2026-04-24 11:24 | 13.10276 | 80.18819 | 8773 ft | 294 kts | 247° |
| 2026-04-24 11:24 | 13.09564 | 80.16876 | 8511 ft | 289 kts | 250° |
| 2026-04-24 11:24 | 13.08892 | 80.14950 | 8211 ft | 285 kts | 250° |
| 2026-04-24 11:24 | 13.08229 | 80.13054 | 7925 ft | 281 kts | 250° |
| 2026-04-24 11:25 | 13.07567 | 80.11176 | 7652 ft | 278 kts | 250° |
| 2026-04-24 11:25 | 13.06898 | 80.09296 | 7367 ft | 284 kts | 250° |
| 2026-04-24 11:25 | 13.06216 | 80.07385 | 7087 ft | 285 kts | 250° |
| 2026-04-24 11:25 | 13.05543 | 80.05505 | 6791 ft | 276 kts | 249° |
| 2026-04-24 11:26 | 13.04860 | 80.03678 | 6508 ft | 274 kts | 248° |
| 2026-04-24 11:26 | 13.04156 | 80.01846 | 6238 ft | 276 kts | 248° |
| 2026-04-24 11:26 | 13.03454 | 80.00019 | 5919 ft | 275 kts | 248° |
| 2026-04-24 11:26 | 13.02767 | 79.98225 | 5637 ft | 274 kts | 248° |
| 2026-04-24 11:27 | 13.02073 | 79.96411 | 5358 ft | 270 kts | 247° |
| 2026-04-24 11:27 | 13.01403 | 79.94657 | 5094 ft | 256 kts | 247° |
| 2026-04-24 11:27 | 13.00735 | 79.93028 | 4805 ft | 238 kts | 237° |
| 2026-04-24 11:27 | 12.99603 | 79.91908 | 4593 ft | 223 kts | 202° |
| 2026-04-24 11:28 | 12.98112 | 79.91584 | 4604 ft | 222 kts | 177° |
| 2026-04-24 11:28 | 12.96562 | 79.91840 | 4362 ft | 224 kts | 158° |
| 2026-04-24 11:28 | 12.95333 | 79.92669 | 4112 ft | 204 kts | 136° |
| 2026-04-24 11:28 | 12.94331 | 79.93636 | 3927 ft | 195 kts | 138° |
| 2026-04-24 11:29 | 12.93329 | 79.94580 | 3749 ft | 195 kts | 138° |
| 2026-04-24 11:29 | 12.92388 | 79.95548 | 3538 ft | 187 kts | 122° |
| 2026-04-24 11:29 | 12.92102 | 79.96810 | 3343 ft | 189 kts | 84° |
| 2026-04-24 11:29 | 12.92352 | 79.98135 | 3141 ft | 187 kts | 79° |
| 2026-04-24 11:30 | 12.92656 | 79.99427 | 2974 ft | 190 kts | 81° |
| 2026-04-24 11:30 | 12.93000 | 80.00703 | 2782 ft | 188 kts | 75° |
| 2026-04-24 11:30 | 12.93434 | 80.01977 | 2607 ft | 192 kts | 73° |
| 2026-04-24 11:30 | 12.93914 | 80.03263 | 2373 ft | 192 kts | 73° |
| 2026-04-24 11:31 | 12.94385 | 80.04520 | 2119 ft | 185 kts | 74° |
| 2026-04-24 11:31 | 12.94834 | 80.05726 | 1943 ft | 181 kts | 73° |
| 2026-04-24 11:31 | 12.95271 | 80.06890 | 1658 ft | 169 kts | 74° |
| 2026-04-24 11:31 | 12.95681 | 80.07983 | 1484 ft | 158 kts | 74° |
| 2026-04-24 11:32 | 12.96066 | 80.09012 | 1317 ft | 154 kts | 75° |
| 2026-04-24 11:32 | 12.96447 | 80.10034 | 1109 ft | 151 kts | 73° |
| 2026-04-24 11:32 | 12.96814 | 80.11020 | 919 ft | 142 kts | 74° |
| 2026-04-24 11:32 | 12.97156 | 80.11936 | 756 ft | 135 kts | 74° |
| 2026-04-24 11:33 | 12.97498 | 80.12838 | 582 ft | 136 kts | 74° |
| 2026-04-24 11:33 | 12.97839 | 80.13765 | 407 ft | 146 kts | 76° |
| 2026-04-24 11:33 | 12.98213 | 80.14730 | 214 ft | 141 kts | 76° |
| 2026-04-24 11:33 | 12.98546 | 80.15637 | 64 ft | 132 kts | 76° |
| 2026-04-24 11:34 | 12.98841 | 80.16421 | 54 ft | 102 kts | 67° |
| 2026-04-24 11:34 | 12.99040 | 80.16969 | 50 ft | 60 kts | 68° |
| 2026-04-24 11:34 | 12.99155 | 80.17251 | 52 ft | 36 kts | 69° |
| 2026-04-24 11:34 | 12.99235 | 80.17477 | 56 ft | 34 kts | 70° |
| 2026-04-24 11:35 | 12.99281 | 80.17641 | 56 ft | 10 kts | 103° |
| 2026-04-24 11:35 | 12.99207 | 80.17689 | 52 ft | 18 kts | 160° |
| 2026-04-24 11:35 | 12.99141 | 80.17688 | 54 ft | 3 kts | 211° |
| 2026-04-24 11:35 | 12.99128 | 80.17673 | 53 ft | 3 kts | 235° |
| 2026-04-24 11:36 | 12.99127 | 80.17670 | 53 ft | 0 kts | 237° |
| 2026-04-24 11:37 | 12.99093 | 80.17594 | 52 ft | 21 kts | 249° |
| 2026-04-24 11:37 | 12.99035 | 80.17439 | 56 ft | 24 kts | 248° |
| 2026-04-24 11:37 | 12.98972 | 80.17279 | 55 ft | 24 kts | 244° |
| 2026-04-24 11:38 | 12.98901 | 80.17122 | 52 ft | 24 kts | 249° |
| 2026-04-24 11:38 | 12.98840 | 80.16962 | 53 ft | 24 kts | 249° |
| 2026-04-24 11:38 | 12.98779 | 80.16800 | 52 ft | 24 kts | 249° |
| 2026-04-24 11:38 | 12.98720 | 80.16644 | 55 ft | 23 kts | 249° |
| 2026-04-24 11:39 | 12.98661 | 80.16491 | 55 ft | 23 kts | 249° |
| 2026-04-24 11:39 | 12.98605 | 80.16338 | 53 ft | 23 kts | 249° |
| 2026-04-24 11:39 | 12.98559 | 80.16215 | 56 ft | 12 kts | 249° |
| 2026-04-24 11:39 | 12.98525 | 80.16142 | 51 ft | 10 kts | 217° |
| 2026-04-24 11:40 | 12.98458 | 80.16148 | 52 ft | 10 kts | 160° |
| 2026-04-24 11:40 | 12.98392 | 80.16164 | 53 ft | 10 kts | 186° |
| 2026-04-24 11:40 | 12.98329 | 80.16168 | 56 ft | 9 kts | 163° |
| 2026-04-24 11:40 | 12.98301 | 80.16179 | 51 ft | 0 kts | 159° |